sensor_id;sensor_type;location;lat;lon;timestamp;noise_LAeq;noise_LA_min;noise_LA_max;noise_LA01;noise_LA95
69610;Laerm;56816;52.192;4.474;2023-04-24T00:00:01;54.84;49.40;70.05;;
69610;Laerm;56816;52.192;4.474;2023-04-24T00:00:13;53.22;49.25;70.39;;
69610;Laerm;56816;52.192;4.474;2023-04-24T00:00:24;52.87;48.87;69.23;;
69610;Laerm;56816;52.192;4.474;2023-04-24T00:00:34;52.78;49.05;66.44;;
69610;Laerm;56816;52.192;4.474;2023-04-24T00:00:46;57.62;49.21;73.04;;
69610;Laerm;56816;52.192;4.474;2023-04-24T00:00:57;56.52;50.10;66.54;;
69610;Laerm;56816;52.192;4.474;2023-04-24T00:01:07;56.96;51.16;75.56;;
69610;Laerm;56816;52.192;4.474;2023-04-24T00:01:18;59.58;54.21;75.72;;
69610;Laerm;56816;52.192;4.474;2023-04-24T00:01:29;54.40;51.71;69.08;;
69610;Laerm;56816;52.192;4.474;2023-04-24T00:01:39;56.75;50.94;78.47;;
69610;Laerm;56816;52.192;4.474;2023-04-24T00:01:50;63.18;50.52;87.39;;
69610;Laerm;56816;52.192;4.474;2023-04-24T00:02:01;54.32;50.63;69.58;;
69610;Laerm;56816;52.192;4.474;2023-04-24T00:02:12;54.53;51.07;70.25;;
69610;Laerm;56816;52.192;4.474;2023-04-24T00:02:22;53.46;50.56;61.23;;
69610;Laerm;56816;52.192;4.474;2023-04-24T00:02:33;62.45;50.54;79.05;;
69610;Laerm;56816;52.192;4.474;2023-04-24T00:02:44;51.89;49.17;64.67;;
69610;Laerm;56816;52.192;4.474;2023-04-24T00:03:00;51.85;48.61;63.84;;
69610;Laerm;56816;52.192;4.474;2023-04-24T00:03:11;62.19;48.59;85.00;;
69610;Laerm;56816;52.192;4.474;2023-04-24T00:03:23;51.14;48.12;64.37;;
69610;Laerm;56816;52.192;4.474;2023-04-24T00:03:33;54.09;47.78;75.63;;
69610;Laerm;56816;52.192;4.474;2023-04-24T00:03:44;54.41;47.92;76.93;;
69610;Laerm;56816;52.192;4.474;2023-04-24T00:03:55;50.37;48.02;60.11;;
69610;Laerm;56816;52.192;4.474;2023-04-24T00:04:06;53.31;48.06;75.09;;
69610;Laerm;56816;52.192;4.474;2023-04-24T00:04:17;59.58;48.05;83.91;;
69610;Laerm;56816;52.192;4.474;2023-04-24T00:04:27;54.22;47.78;75.73;;
69610;Laerm;56816;52.192;4.474;2023-04-24T00:04:37;53.58;46.98;75.50;;
69610;Laerm;56816;52.192;4.474;2023-04-24T00:04:50;53.49;47.42;75.73;;
69610;Laerm;56816;52.192;4.474;2023-04-24T00:05:01;52.60;47.47;71.35;;
69610;Laerm;56816;52.192;4.474;2023-04-24T00:05:13;54.30;48.23;73.37;;
69610;Laerm;56816;52.192;4.474;2023-04-24T00:05:23;50.88;48.76;57.95;;
69610;Laerm;56816;52.192;4.474;2023-04-24T00:05:34;53.48;49.45;68.75;;
69610;Laerm;56816;52.192;4.474;2023-04-24T00:05:44;62.51;49.73;71.37;;
69610;Laerm;56816;52.192;4.474;2023-04-24T00:05:55;53.03;49.10;68.43;;
69610;Laerm;56816;52.192;4.474;2023-04-24T00:06:05;57.27;50.28;75.23;;
69610;Laerm;56816;52.192;4.474;2023-04-24T00:06:18;53.41;49.31;59.95;;
69610;Laerm;56816;52.192;4.474;2023-04-24T00:06:28;53.19;50.30;62.99;;
69610;Laerm;56816;52.192;4.474;2023-04-24T00:06:44;53.99;51.16;66.96;;
69610;Laerm;56816;52.192;4.474;2023-04-24T00:06:59;53.31;50.39;68.68;;
69610;Laerm;56816;52.192;4.474;2023-04-24T00:07:10;54.01;50.25;61.25;;
69610;Laerm;56816;52.192;4.474;2023-04-24T00:07:20;53.20;50.18;64.79;;
69610;Laerm;56816;52.192;4.474;2023-04-24T00:07:31;62.98;51.72;70.80;;
69610;Laerm;56816;52.192;4.474;2023-04-24T00:07:41;50.83;48.70;55.05;;
69610;Laerm;56816;52.192;4.474;2023-04-24T00:07:52;54.52;48.79;62.23;;
69610;Laerm;56816;52.192;4.474;2023-04-24T00:08:02;52.95;48.16;66.00;;
69610;Laerm;56816;52.192;4.474;2023-04-24T00:08:12;52.67;48.07;71.61;;
69610;Laerm;56816;52.192;4.474;2023-04-24T00:08:23;55.29;49.46;65.50;;
69610;Laerm;56816;52.192;4.474;2023-04-24T00:08:34;52.59;49.05;64.76;;
69610;Laerm;56816;52.192;4.474;2023-04-24T00:08:45;51.90;48.90;61.43;;
69610;Laerm;56816;52.192;4.474;2023-04-24T00:08:55;56.22;50.33;77.00;;
69610;Laerm;56816;52.192;4.474;2023-04-24T00:09:05;66.42;50.57;85.66;;
69610;Laerm;56816;52.192;4.474;2023-04-24T00:09:15;53.99;48.66;67.42;;
69610;Laerm;56816;52.192;4.474;2023-04-24T00:09:26;61.34;48.79;76.40;;
69610;Laerm;56816;52.192;4.474;2023-04-24T00:09:36;65.21;48.59;87.12;;
69610;Laerm;56816;52.192;4.474;2023-04-24T00:09:46;51.24;48.12;59.72;;
69610;Laerm;56816;52.192;4.474;2023-04-24T00:09:57;50.08;47.48;60.77;;
69610;Laerm;56816;52.192;4.474;2023-04-24T00:10:07;51.00;47.06;69.68;;
69610;Laerm;56816;52.192;4.474;2023-04-24T00:10:18;49.70;46.99;63.66;;
69610;Laerm;56816;52.192;4.474;2023-04-24T00:10:29;49.80;47.33;54.73;;
69610;Laerm;56816;52.192;4.474;2023-04-24T00:10:39;50.53;47.87;57.51;;
69610;Laerm;56816;52.192;4.474;2023-04-24T00:10:50;51.29;48.65;62.76;;
69610;Laerm;56816;52.192;4.474;2023-04-24T00:11:00;53.23;48.70;72.69;;
69610;Laerm;56816;52.192;4.474;2023-04-24T00:11:10;57.79;49.36;80.38;;
69610;Laerm;56816;52.192;4.474;2023-04-24T00:11:21;54.94;49.29;75.61;;
69610;Laerm;56816;52.192;4.474;2023-04-24T00:11:31;55.96;49.53;76.05;;
69610;Laerm;56816;52.192;4.474;2023-04-24T00:11:41;52.10;49.19;66.08;;
69610;Laerm;56816;52.192;4.474;2023-04-24T00:11:52;59.46;49.05;80.56;;
69610;Laerm;56816;52.192;4.474;2023-04-24T00:12:02;61.01;49.34;75.51;;
69610;Laerm;56816;52.192;4.474;2023-04-24T00:12:15;64.29;48.47;80.33;;
69610;Laerm;56816;52.192;4.474;2023-04-24T00:12:26;51.42;47.95;63.53;;
69610;Laerm;56816;52.192;4.474;2023-04-24T00:12:37;50.56;47.56;57.84;;
69610;Laerm;56816;52.192;4.474;2023-04-24T00:12:47;53.86;48.00;74.35;;
69610;Laerm;56816;52.192;4.474;2023-04-24T00:12:57;53.79;47.63;69.26;;
69610;Laerm;56816;52.192;4.474;2023-04-24T00:13:08;51.01;47.74;59.32;;
69610;Laerm;56816;52.192;4.474;2023-04-24T00:13:18;54.79;48.03;77.42;;
69610;Laerm;56816;52.192;4.474;2023-04-24T00:13:29;53.33;48.14;64.32;;
69610;Laerm;56816;52.192;4.474;2023-04-24T00:13:39;52.55;48.52;63.99;;
69610;Laerm;56816;52.192;4.474;2023-04-24T00:13:49;57.67;49.10;68.73;;
69610;Laerm;56816;52.192;4.474;2023-04-24T00:14:00;62.34;49.47;74.77;;
69610;Laerm;56816;52.192;4.474;2023-04-24T00:14:10;51.32;48.51;60.17;;
69610;Laerm;56816;52.192;4.474;2023-04-24T00:14:20;59.63;49.02;83.34;;
69610;Laerm;56816;52.192;4.474;2023-04-24T00:14:31;55.20;49.49;71.94;;
69610;Laerm;56816;52.192;4.474;2023-04-24T00:14:41;62.26;48.97;86.66;;
69610;Laerm;56816;52.192;4.474;2023-04-24T00:14:51;51.83;48.78;61.84;;
69610;Laerm;56816;52.192;4.474;2023-04-24T00:15:02;52.12;48.22;70.50;;
69610;Laerm;56816;52.192;4.474;2023-04-24T00:15:12;50.87;48.32;57.43;;
69610;Laerm;56816;52.192;4.474;2023-04-24T00:15:22;51.23;48.74;58.06;;
69610;Laerm;56816;52.192;4.474;2023-04-24T00:15:32;51.75;48.58;67.43;;
69610;Laerm;56816;52.192;4.474;2023-04-24T00:15:43;51.91;48.96;61.33;;
69610;Laerm;56816;52.192;4.474;2023-04-24T00:15:53;54.47;48.56;76.12;;
69610;Laerm;56816;52.192;4.474;2023-04-24T00:16:04;61.73;49.07;73.99;;
69610;Laerm;56816;52.192;4.474;2023-04-24T00:16:15;64.09;51.63;73.58;;
69610;Laerm;56816;52.192;4.474;2023-04-24T00:16:25;56.17;47.87;73.61;;
69610;Laerm;56816;52.192;4.474;2023-04-24T00:16:35;57.66;49.12;74.08;;
69610;Laerm;56816;52.192;4.474;2023-04-24T00:16:46;64.40;49.33;85.78;;
69610;Laerm;56816;52.192;4.474;2023-04-24T00:16:56;58.64;49.43;72.60;;
69610;Laerm;56816;52.192;4.474;2023-04-24T00:17:06;51.38;48.57;58.84;;
69610;Laerm;56816;52.192;4.474;2023-04-24T00:17:16;52.61;48.82;59.15;;
69610;Laerm;56816;52.192;4.474;2023-04-24T00:17:29;51.91;48.70;59.01;;
69610;Laerm;56816;52.192;4.474;2023-04-24T00:17:40;52.83;48.81;62.25;;
69610;Laerm;56816;52.192;4.474;2023-04-24T00:17:50;58.71;49.04;81.24;;
69610;Laerm;56816;52.192;4.474;2023-04-24T00:18:01;53.50;49.51;68.83;;
69610;Laerm;56816;52.192;4.474;2023-04-24T00:18:12;54.30;49.76;71.76;;
69610;Laerm;56816;52.192;4.474;2023-04-24T00:18:22;60.49;49.12;80.12;;
69610;Laerm;56816;52.192;4.474;2023-04-24T00:18:32;54.32;49.05;73.85;;
69610;Laerm;56816;52.192;4.474;2023-04-24T00:18:43;67.65;49.19;92.00;;
69610;Laerm;56816;52.192;4.474;2023-04-24T00:18:54;57.26;50.23;70.24;;
69610;Laerm;56816;52.192;4.474;2023-04-24T00:19:05;57.58;49.91;67.12;;
69610;Laerm;56816;52.192;4.474;2023-04-24T00:19:16;55.66;48.99;74.68;;
69610;Laerm;56816;52.192;4.474;2023-04-24T00:19:26;52.61;50.03;60.13;;
69610;Laerm;56816;52.192;4.474;2023-04-24T00:19:37;54.86;50.52;67.27;;
69610;Laerm;56816;52.192;4.474;2023-04-24T00:19:48;58.39;52.28;67.52;;
69610;Laerm;56816;52.192;4.474;2023-04-24T00:19:58;57.62;50.82;73.24;;
69610;Laerm;56816;52.192;4.474;2023-04-24T00:20:08;58.35;50.51;76.73;;
69610;Laerm;56816;52.192;4.474;2023-04-24T00:20:20;55.59;50.73;71.92;;
69610;Laerm;56816;52.192;4.474;2023-04-24T00:20:31;54.20;49.95;69.81;;
69610;Laerm;56816;52.192;4.474;2023-04-24T00:20:45;58.17;50.54;79.31;;
69610;Laerm;56816;52.192;4.474;2023-04-24T00:20:56;56.60;49.52;79.48;;
69610;Laerm;56816;52.192;4.474;2023-04-24T00:21:06;55.71;49.67;73.06;;
69610;Laerm;56816;52.192;4.474;2023-04-24T00:21:17;55.26;50.53;74.29;;
69610;Laerm;56816;52.192;4.474;2023-04-24T00:21:27;66.00;52.35;89.50;;
69610;Laerm;56816;52.192;4.474;2023-04-24T00:21:38;54.40;51.32;65.07;;
69610;Laerm;56816;52.192;4.474;2023-04-24T00:21:48;56.07;50.63;74.60;;
69610;Laerm;56816;52.192;4.474;2023-04-24T00:22:01;52.49;49.65;58.24;;
69610;Laerm;56816;52.192;4.474;2023-04-24T00:22:12;57.86;50.69;81.21;;
69610;Laerm;56816;52.192;4.474;2023-04-24T00:22:26;55.67;51.23;73.54;;
69610;Laerm;56816;52.192;4.474;2023-04-24T00:22:36;55.53;52.54;69.10;;
69610;Laerm;56816;52.192;4.474;2023-04-24T00:22:46;54.00;51.95;62.41;;
69610;Laerm;56816;52.192;4.474;2023-04-24T00:22:57;59.41;52.47;80.58;;
69610;Laerm;56816;52.192;4.474;2023-04-24T00:23:07;62.36;52.43;80.67;;
69610;Laerm;56816;52.192;4.474;2023-04-24T00:23:18;59.86;54.43;80.95;;
69610;Laerm;56816;52.192;4.474;2023-04-24T00:23:28;60.40;53.72;76.20;;
69610;Laerm;56816;52.192;4.474;2023-04-24T00:23:38;64.28;52.55;85.53;;
69610;Laerm;56816;52.192;4.474;2023-04-24T00:23:48;54.83;51.49;60.66;;
69610;Laerm;56816;52.192;4.474;2023-04-24T00:23:58;61.86;53.85;75.34;;
69610;Laerm;56816;52.192;4.474;2023-04-24T00:24:09;62.63;54.31;79.59;;
69610;Laerm;56816;52.192;4.474;2023-04-24T00:24:19;59.29;51.95;73.17;;
69610;Laerm;56816;52.192;4.474;2023-04-24T00:24:30;56.62;52.26;69.02;;
69610;Laerm;56816;52.192;4.474;2023-04-24T00:24:40;56.20;51.68;75.59;;
69610;Laerm;56816;52.192;4.474;2023-04-24T00:24:51;59.01;50.05;74.75;;
69610;Laerm;56816;52.192;4.474;2023-04-24T00:25:01;58.44;51.03;68.73;;
69610;Laerm;56816;52.192;4.474;2023-04-24T00:25:11;59.69;49.97;81.50;;
69610;Laerm;56816;52.192;4.474;2023-04-24T00:25:21;62.71;48.99;76.62;;
69610;Laerm;56816;52.192;4.474;2023-04-24T00:25:31;53.31;48.51;65.14;;
69610;Laerm;56816;52.192;4.474;2023-04-24T00:25:42;60.63;49.83;82.87;;
69610;Laerm;56816;52.192;4.474;2023-04-24T00:25:52;58.38;49.81;80.94;;
69610;Laerm;56816;52.192;4.474;2023-04-24T00:26:02;68.53;54.25;91.27;;
69610;Laerm;56816;52.192;4.474;2023-04-24T00:26:12;63.87;53.44;79.39;;
69610;Laerm;56816;52.192;4.474;2023-04-24T00:26:23;60.09;51.96;69.01;;
69610;Laerm;56816;52.192;4.474;2023-04-24T00:26:33;59.00;51.47;77.74;;
69610;Laerm;56816;52.192;4.474;2023-04-24T00:26:43;54.26;51.40;65.81;;
69610;Laerm;56816;52.192;4.474;2023-04-24T00:26:54;62.85;52.01;71.08;;
69610;Laerm;56816;52.192;4.474;2023-04-24T00:27:04;61.34;50.61;82.66;;
69610;Laerm;56816;52.192;4.474;2023-04-24T00:27:14;54.63;50.81;62.51;;
69610;Laerm;56816;52.192;4.474;2023-04-24T00:27:24;55.03;51.25;63.17;;
69610;Laerm;56816;52.192;4.474;2023-04-24T00:27:35;53.63;51.09;67.63;;
69610;Laerm;56816;52.192;4.474;2023-04-24T00:27:47;54.56;50.43;71.59;;
69610;Laerm;56816;52.192;4.474;2023-04-24T00:27:57;52.94;49.99;67.66;;
69610;Laerm;56816;52.192;4.474;2023-04-24T00:28:07;53.43;50.09;71.03;;
69610;Laerm;56816;52.192;4.474;2023-04-24T00:28:17;53.37;50.73;58.55;;
69610;Laerm;56816;52.192;4.474;2023-04-24T00:28:28;55.88;50.26;70.36;;
69610;Laerm;56816;52.192;4.474;2023-04-24T00:28:38;54.81;50.45;65.37;;
69610;Laerm;56816;52.192;4.474;2023-04-24T00:28:48;54.59;50.85;73.44;;
69610;Laerm;56816;52.192;4.474;2023-04-24T00:28:58;55.52;50.88;65.01;;
69610;Laerm;56816;52.192;4.474;2023-04-24T00:29:09;57.64;50.61;79.77;;
69610;Laerm;56816;52.192;4.474;2023-04-24T00:29:19;54.14;50.93;67.97;;
69610;Laerm;56816;52.192;4.474;2023-04-24T00:29:29;58.68;50.93;78.55;;
69610;Laerm;56816;52.192;4.474;2023-04-24T00:29:39;54.39;51.54;67.80;;
69610;Laerm;56816;52.192;4.474;2023-04-24T00:29:50;58.28;51.30;80.95;;
69610;Laerm;56816;52.192;4.474;2023-04-24T00:30:00;55.83;51.36;74.41;;
69610;Laerm;56816;52.192;4.474;2023-04-24T00:30:10;53.80;50.80;69.17;;
69610;Laerm;56816;52.192;4.474;2023-04-24T00:30:20;52.89;49.95;64.50;;
69610;Laerm;56816;52.192;4.474;2023-04-24T00:30:31;52.88;50.12;67.55;;
69610;Laerm;56816;52.192;4.474;2023-04-24T00:30:41;54.98;50.36;73.62;;
69610;Laerm;56816;52.192;4.474;2023-04-24T00:30:51;65.05;49.55;89.50;;
69610;Laerm;56816;52.192;4.474;2023-04-24T00:31:02;53.31;50.61;65.15;;
69610;Laerm;56816;52.192;4.474;2023-04-24T00:31:12;59.84;50.25;83.46;;
69610;Laerm;56816;52.192;4.474;2023-04-24T00:31:22;57.71;51.00;79.76;;
69610;Laerm;56816;52.192;4.474;2023-04-24T00:31:32;66.49;50.98;90.65;;
69610;Laerm;56816;52.192;4.474;2023-04-24T00:31:44;56.67;50.80;79.29;;
69610;Laerm;56816;52.192;4.474;2023-04-24T00:31:55;64.89;50.95;89.15;;
69610;Laerm;56816;52.192;4.474;2023-04-24T00:32:05;57.47;50.52;80.09;;
69610;Laerm;56816;52.192;4.474;2023-04-24T00:32:15;52.98;50.31;65.91;;
69610;Laerm;56816;52.192;4.474;2023-04-24T00:32:26;55.37;50.41;73.04;;
69610;Laerm;56816;52.192;4.474;2023-04-24T00:32:36;52.62;49.11;63.51;;
69610;Laerm;56816;52.192;4.474;2023-04-24T00:32:46;55.62;50.60;73.96;;
69610;Laerm;56816;52.192;4.474;2023-04-24T00:32:57;53.19;50.28;64.41;;
69610;Laerm;56816;52.192;4.474;2023-04-24T00:33:07;57.13;51.73;71.71;;
69610;Laerm;56816;52.192;4.474;2023-04-24T00:33:18;56.03;53.33;64.09;;
69610;Laerm;56816;52.192;4.474;2023-04-24T00:33:28;56.68;51.65;75.53;;
69610;Laerm;56816;52.192;4.474;2023-04-24T00:33:38;61.68;53.62;72.74;;
69610;Laerm;56816;52.192;4.474;2023-04-24T00:33:48;67.33;52.44;86.90;;
69610;Laerm;56816;52.192;4.474;2023-04-24T00:33:59;59.48;51.65;82.19;;
69610;Laerm;56816;52.192;4.474;2023-04-24T00:34:09;55.10;52.22;72.20;;
69610;Laerm;56816;52.192;4.474;2023-04-24T00:34:21;54.48;51.24;60.82;;
69610;Laerm;56816;52.192;4.474;2023-04-24T00:34:31;58.64;50.32;77.96;;
69610;Laerm;56816;52.192;4.474;2023-04-24T00:34:42;67.12;50.97;79.24;;
69610;Laerm;56816;52.192;4.474;2023-04-24T00:34:52;60.52;50.47;73.08;;
69610;Laerm;56816;52.192;4.474;2023-04-24T00:35:03;66.40;50.74;81.74;;
69610;Laerm;56816;52.192;4.474;2023-04-24T00:35:13;54.41;50.09;70.06;;
69610;Laerm;56816;52.192;4.474;2023-04-24T00:35:24;57.34;49.62;78.02;;
69610;Laerm;56816;52.192;4.474;2023-04-24T00:35:34;54.87;49.26;75.91;;
69610;Laerm;56816;52.192;4.474;2023-04-24T00:35:45;54.93;49.29;66.87;;
69610;Laerm;56816;52.192;4.474;2023-04-24T00:35:55;53.53;49.83;65.97;;
69610;Laerm;56816;52.192;4.474;2023-04-24T00:36:05;56.54;51.13;77.37;;
69610;Laerm;56816;52.192;4.474;2023-04-24T00:36:16;55.85;50.60;74.07;;
69610;Laerm;56816;52.192;4.474;2023-04-24T00:36:26;54.33;50.44;73.08;;
69610;Laerm;56816;52.192;4.474;2023-04-24T00:36:37;53.04;50.41;64.76;;
69610;Laerm;56816;52.192;4.474;2023-04-24T00:36:47;53.47;50.35;63.47;;
69610;Laerm;56816;52.192;4.474;2023-04-24T00:36:59;53.76;50.00;71.01;;
69610;Laerm;56816;52.192;4.474;2023-04-24T00:37:09;53.90;49.48;69.73;;
69610;Laerm;56816;52.192;4.474;2023-04-24T00:37:19;57.11;50.99;76.38;;
69610;Laerm;56816;52.192;4.474;2023-04-24T00:37:30;57.12;49.89;71.95;;
69610;Laerm;56816;52.192;4.474;2023-04-24T00:37:40;52.50;49.32;60.27;;
69610;Laerm;56816;52.192;4.474;2023-04-24T00:37:51;52.83;49.74;63.97;;
69610;Laerm;56816;52.192;4.474;2023-04-24T00:38:01;51.97;49.01;60.76;;
69610;Laerm;56816;52.192;4.474;2023-04-24T00:38:11;52.04;48.99;63.98;;
69610;Laerm;56816;52.192;4.474;2023-04-24T00:38:21;54.82;49.08;69.66;;
69610;Laerm;56816;52.192;4.474;2023-04-24T00:38:32;55.11;49.79;66.00;;
69610;Laerm;56816;52.192;4.474;2023-04-24T00:38:42;59.99;49.48;79.80;;
69610;Laerm;56816;52.192;4.474;2023-04-24T00:38:53;67.04;49.07;91.57;;
69610;Laerm;56816;52.192;4.474;2023-04-24T00:39:03;53.72;49.69;64.12;;
69610;Laerm;56816;52.192;4.474;2023-04-24T00:39:13;53.67;49.62;72.37;;
69610;Laerm;56816;52.192;4.474;2023-04-24T00:39:23;52.39;49.60;58.01;;
69610;Laerm;56816;52.192;4.474;2023-04-24T00:39:34;57.26;50.20;79.36;;
69610;Laerm;56816;52.192;4.474;2023-04-24T00:39:44;55.39;51.43;73.19;;
69610;Laerm;56816;52.192;4.474;2023-04-24T00:39:54;62.48;50.42;83.93;;
69610;Laerm;56816;52.192;4.474;2023-04-24T00:40:05;58.58;49.88;79.55;;
69610;Laerm;56816;52.192;4.474;2023-04-24T00:40:16;54.50;49.30;75.37;;
69610;Laerm;56816;52.192;4.474;2023-04-24T00:40:26;54.06;49.71;73.35;;
69610;Laerm;56816;52.192;4.474;2023-04-24T00:40:37;53.51;49.62;70.24;;
69610;Laerm;56816;52.192;4.474;2023-04-24T00:40:47;54.77;50.94;74.35;;
69610;Laerm;56816;52.192;4.474;2023-04-24T00:40:59;55.63;51.24;74.23;;
69610;Laerm;56816;52.192;4.474;2023-04-24T00:41:10;54.00;50.52;60.58;;
69610;Laerm;56816;52.192;4.474;2023-04-24T00:41:20;57.45;50.47;70.76;;
69610;Laerm;56816;52.192;4.474;2023-04-24T00:41:31;60.78;53.05;80.13;;
69610;Laerm;56816;52.192;4.474;2023-04-24T00:41:41;57.96;52.28;69.73;;
69610;Laerm;56816;52.192;4.474;2023-04-24T00:41:51;57.66;51.37;78.57;;
69610;Laerm;56816;52.192;4.474;2023-04-24T00:42:02;51.99;49.61;59.98;;
69610;Laerm;56816;52.192;4.474;2023-04-24T00:42:12;52.09;48.78;60.32;;
69610;Laerm;56816;52.192;4.474;2023-04-24T00:42:23;51.03;48.59;55.75;;
69610;Laerm;56816;52.192;4.474;2023-04-24T00:42:33;57.43;50.22;78.06;;
69610;Laerm;56816;52.192;4.474;2023-04-24T00:42:44;52.90;50.07;63.10;;
69610;Laerm;56816;52.192;4.474;2023-04-24T00:42:55;53.65;49.92;69.79;;
69610;Laerm;56816;52.192;4.474;2023-04-24T00:43:05;53.97;49.03;71.20;;
69610;Laerm;56816;52.192;4.474;2023-04-24T00:43:16;52.21;49.25;60.36;;
69610;Laerm;56816;52.192;4.474;2023-04-24T00:43:26;53.98;51.23;59.71;;
69610;Laerm;56816;52.192;4.474;2023-04-24T00:43:36;53.29;50.48;62.63;;
69610;Laerm;56816;52.192;4.474;2023-04-24T00:43:47;53.98;51.26;63.00;;
69610;Laerm;56816;52.192;4.474;2023-04-24T00:43:57;59.26;52.14;80.28;;
69610;Laerm;56816;52.192;4.474;2023-04-24T00:44:08;53.91;51.24;65.41;;
69610;Laerm;56816;52.192;4.474;2023-04-24T00:44:18;57.92;51.26;73.96;;
69610;Laerm;56816;52.192;4.474;2023-04-24T00:44:28;57.58;51.91;67.84;;
69610;Laerm;56816;52.192;4.474;2023-04-24T00:44:38;55.17;51.56;70.96;;
69610;Laerm;56816;52.192;4.474;2023-04-24T00:44:49;53.79;50.68;62.92;;
69610;Laerm;56816;52.192;4.474;2023-04-24T00:44:59;65.72;50.74;90.25;;
69610;Laerm;56816;52.192;4.474;2023-04-24T00:45:10;54.49;50.70;65.71;;
69610;Laerm;56816;52.192;4.474;2023-04-24T00:45:21;54.61;51.77;64.19;;
69610;Laerm;56816;52.192;4.474;2023-04-24T00:45:32;57.49;50.40;80.37;;
69610;Laerm;56816;52.192;4.474;2023-04-24T00:45:42;63.10;50.92;73.23;;
69610;Laerm;56816;52.192;4.474;2023-04-24T00:45:53;55.23;51.18;63.18;;
69610;Laerm;56816;52.192;4.474;2023-04-24T00:46:03;57.20;49.89;71.99;;
69610;Laerm;56816;52.192;4.474;2023-04-24T00:46:14;52.76;49.48;63.03;;
69610;Laerm;56816;52.192;4.474;2023-04-24T00:46:26;54.51;49.69;75.53;;
69610;Laerm;56816;52.192;4.474;2023-04-24T00:46:36;52.06;48.12;60.47;;
69610;Laerm;56816;52.192;4.474;2023-04-24T00:46:46;54.60;48.65;64.14;;
69610;Laerm;56816;52.192;4.474;2023-04-24T00:46:57;50.43;47.49;60.80;;
69610;Laerm;56816;52.192;4.474;2023-04-24T00:47:08;51.78;48.54;60.59;;
69610;Laerm;56816;52.192;4.474;2023-04-24T00:47:18;51.89;48.28;68.52;;
69610;Laerm;56816;52.192;4.474;2023-04-24T00:47:28;52.06;48.21;69.89;;
69610;Laerm;56816;52.192;4.474;2023-04-24T00:47:40;60.50;48.63;81.29;;
69610;Laerm;56816;52.192;4.474;2023-04-24T00:47:52;54.65;47.76;66.27;;
69610;Laerm;56816;52.192;4.474;2023-04-24T00:48:02;59.06;47.89;79.30;;
69610;Laerm;56816;52.192;4.474;2023-04-24T00:48:13;50.73;47.50;61.45;;
69610;Laerm;56816;52.192;4.474;2023-04-24T00:48:24;53.11;48.12;73.02;;
69610;Laerm;56816;52.192;4.474;2023-04-24T00:48:34;52.59;47.81;72.10;;
69610;Laerm;56816;52.192;4.474;2023-04-24T00:48:45;64.37;47.67;87.43;;
69610;Laerm;56816;52.192;4.474;2023-04-24T00:48:56;51.81;48.35;69.94;;
69610;Laerm;56816;52.192;4.474;2023-04-24T00:49:06;50.95;47.85;64.86;;
69610;Laerm;56816;52.192;4.474;2023-04-24T00:49:17;51.77;47.64;64.52;;
69610;Laerm;56816;52.192;4.474;2023-04-24T00:49:27;50.76;47.24;66.88;;
69610;Laerm;56816;52.192;4.474;2023-04-24T00:49:38;52.82;47.22;72.55;;
69610;Laerm;56816;52.192;4.474;2023-04-24T00:49:48;51.65;45.85;68.60;;
69610;Laerm;56816;52.192;4.474;2023-04-24T00:50:00;50.66;46.84;67.09;;
69610;Laerm;56816;52.192;4.474;2023-04-24T00:50:10;49.90;46.47;61.26;;
69610;Laerm;56816;52.192;4.474;2023-04-24T00:50:21;50.91;47.74;65.92;;
69610;Laerm;56816;52.192;4.474;2023-04-24T00:50:31;52.08;47.21;63.62;;
69610;Laerm;56816;52.192;4.474;2023-04-24T00:50:42;59.47;47.12;83.57;;
69610;Laerm;56816;52.192;4.474;2023-04-24T00:50:52;49.45;46.80;60.51;;
69610;Laerm;56816;52.192;4.474;2023-04-24T00:51:02;48.93;46.48;58.19;;
69610;Laerm;56816;52.192;4.474;2023-04-24T00:51:13;49.32;47.17;59.46;;
69610;Laerm;56816;52.192;4.474;2023-04-24T00:51:23;54.31;47.23;77.27;;
69610;Laerm;56816;52.192;4.474;2023-04-24T00:51:34;52.89;47.05;65.25;;
69610;Laerm;56816;52.192;4.474;2023-04-24T00:51:44;53.87;47.30;64.72;;
69610;Laerm;56816;52.192;4.474;2023-04-24T00:51:55;48.94;46.49;60.04;;
69610;Laerm;56816;52.192;4.474;2023-04-24T00:52:06;48.98;46.01;59.36;;
69610;Laerm;56816;52.192;4.474;2023-04-24T00:52:17;49.92;46.14;65.16;;
69610;Laerm;56816;52.192;4.474;2023-04-24T00:52:27;49.16;46.62;53.90;;
69610;Laerm;56816;52.192;4.474;2023-04-24T00:52:38;51.16;47.83;56.82;;
69610;Laerm;56816;52.192;4.474;2023-04-24T00:52:50;53.54;47.64;69.49;;
69610;Laerm;56816;52.192;4.474;2023-04-24T00:53:01;55.67;48.90;76.81;;
69610;Laerm;56816;52.192;4.474;2023-04-24T00:53:11;51.73;47.94;63.61;;
69610;Laerm;56816;52.192;4.474;2023-04-24T00:53:21;52.61;48.01;61.87;;
69610;Laerm;56816;52.192;4.474;2023-04-24T00:53:31;49.30;46.93;56.83;;
69610;Laerm;56816;52.192;4.474;2023-04-24T00:53:42;52.07;48.01;67.19;;
69610;Laerm;56816;52.192;4.474;2023-04-24T00:53:53;53.26;48.37;73.38;;
69610;Laerm;56816;52.192;4.474;2023-04-24T00:54:03;51.73;48.84;57.98;;
69610;Laerm;56816;52.192;4.474;2023-04-24T00:54:13;52.62;49.00;70.59;;
69610;Laerm;56816;52.192;4.474;2023-04-24T00:54:23;52.49;49.61;64.56;;
69610;Laerm;56816;52.192;4.474;2023-04-24T00:54:34;62.43;50.89;86.18;;
69610;Laerm;56816;52.192;4.474;2023-04-24T00:54:44;56.78;49.95;66.79;;
69610;Laerm;56816;52.192;4.474;2023-04-24T00:54:55;52.49;49.02;68.31;;
69610;Laerm;56816;52.192;4.474;2023-04-24T00:55:05;53.53;49.12;72.58;;
69610;Laerm;56816;52.192;4.474;2023-04-24T00:55:16;52.83;48.60;70.75;;
69610;Laerm;56816;52.192;4.474;2023-04-24T00:55:26;52.52;49.35;64.18;;
69610;Laerm;56816;52.192;4.474;2023-04-24T00:55:36;56.35;49.48;79.18;;
69610;Laerm;56816;52.192;4.474;2023-04-24T00:55:47;55.23;49.04;74.91;;
69610;Laerm;56816;52.192;4.474;2023-04-24T00:55:57;65.72;49.96;90.13;;
69610;Laerm;56816;52.192;4.474;2023-04-24T00:56:08;52.15;49.70;57.41;;
69610;Laerm;56816;52.192;4.474;2023-04-24T00:56:18;60.38;49.53;84.13;;
69610;Laerm;56816;52.192;4.474;2023-04-24T00:56:28;58.11;48.66;77.78;;
69610;Laerm;56816;52.192;4.474;2023-04-24T00:56:39;55.94;49.02;78.51;;
69610;Laerm;56816;52.192;4.474;2023-04-24T00:56:50;50.71;48.31;60.44;;
69610;Laerm;56816;52.192;4.474;2023-04-24T00:57:02;61.81;48.27;72.71;;
69610;Laerm;56816;52.192;4.474;2023-04-24T00:57:13;67.49;49.70;84.04;;
69610;Laerm;56816;52.192;4.474;2023-04-24T00:57:24;53.47;47.90;71.66;;
69610;Laerm;56816;52.192;4.474;2023-04-24T00:57:35;53.57;47.89;75.28;;
69610;Laerm;56816;52.192;4.474;2023-04-24T00:57:45;51.58;47.83;65.17;;
69610;Laerm;56816;52.192;4.474;2023-04-24T00:57:56;50.95;48.24;60.91;;
69610;Laerm;56816;52.192;4.474;2023-04-24T00:58:07;51.45;48.56;64.74;;
69610;Laerm;56816;52.192;4.474;2023-04-24T00:58:17;55.83;48.24;78.71;;
69610;Laerm;56816;52.192;4.474;2023-04-24T00:58:28;57.62;48.86;79.75;;
69610;Laerm;56816;52.192;4.474;2023-04-24T00:58:39;54.56;49.84;64.81;;
69610;Laerm;56816;52.192;4.474;2023-04-24T00:58:50;57.18;51.01;73.15;;
69610;Laerm;56816;52.192;4.474;2023-04-24T00:59:00;66.56;49.86;78.93;;
69610;Laerm;56816;52.192;4.474;2023-04-24T00:59:15;52.53;49.76;58.10;;
69610;Laerm;56816;52.192;4.474;2023-04-24T00:59:26;59.88;48.54;85.36;;